createdAt,value
2022-12-13T00:00:21.747Z,927.76
2022-12-13T00:01:21.932Z,927.75
2022-12-13T00:02:22.436Z,927.74
2022-12-13T00:03:23.337Z,927.73
2022-12-13T00:04:24.379Z,927.67
2022-12-13T00:05:25.190Z,927.67
2022-12-13T00:06:25.352Z,927.72
2022-12-13T00:07:25.963Z,927.72
2022-12-13T00:08:26.620Z,927.72
2022-12-13T00:09:27.419Z,927.69
2022-12-13T00:10:27.626Z,927.69
2022-12-13T00:11:27.821Z,927.69
2022-12-13T00:12:28.729Z,927.67
2022-12-13T00:13:29.627Z,927.66
2022-12-13T00:14:30.243Z,927.65
2022-12-13T00:15:30.464Z,927.64
2022-12-13T00:16:30.997Z,927.66
2022-12-13T00:17:31.375Z,927.65
2022-12-13T00:18:31.992Z,927.61
2022-12-13T00:19:32.678Z,927.62
2022-12-13T00:20:33.592Z,927.67
2022-12-13T00:21:33.839Z,927.64
2022-12-13T00:22:34.173Z,927.62
2022-12-13T00:23:35.089Z,927.61
2022-12-13T00:24:38.163Z,927.61
2022-12-13T00:25:36.451Z,927.61
2022-12-13T00:26:37.157Z,927.62
2022-12-13T00:27:38.070Z,927.62
2022-12-13T00:28:38.984Z,927.61
2022-12-13T00:29:39.930Z,927.61
2022-12-13T00:30:40.916Z,927.58
2022-12-13T00:32:00.269Z,927.61
2022-12-13T00:32:42.132Z,927.57
2022-12-13T00:33:43.045Z,927.57
2022-12-13T00:34:43.539Z,927.55
2022-12-13T00:35:44.462Z,927.52
2022-12-13T00:36:44.852Z,927.46
2022-12-13T00:37:45.344Z,927.52
2022-12-13T00:38:46.045Z,927.5
2022-12-13T00:39:46.707Z,927.54
2022-12-13T00:40:47.632Z,927.49
2022-12-13T00:41:48.270Z,927.44
2022-12-13T00:42:48.903Z,927.43
2022-12-13T00:43:49.818Z,927.4
2022-12-13T00:44:50.009Z,927.35
2022-12-13T00:45:50.439Z,927.42
2022-12-13T00:46:51.174Z,927.4
2022-12-13T00:47:51.799Z,927.39
2022-12-13T00:48:52.703Z,927.32
2022-12-13T00:49:53.615Z,927.35
2022-12-13T00:50:54.298Z,927.38
2022-12-13T00:51:54.944Z,927.36
2022-12-13T00:52:55.136Z,927.38
2022-12-13T00:53:55.755Z,927.35
2022-12-13T00:54:56.406Z,927.34
2022-12-13T00:55:57.109Z,927.35
2022-12-13T00:56:57.443Z,927.35
2022-12-13T00:57:57.921Z,927.3
2022-12-13T00:58:58.847Z,927.29
2022-12-13T00:59:59.335Z,927.25
2022-12-13T01:01:00.381Z,927.22
2022-12-13T01:02:00.549Z,927.28
2022-12-13T01:03:01.256Z,927.29
2022-12-13T01:04:01.710Z,927.27
2022-12-13T01:05:01.903Z,927.33
2022-12-13T01:06:14.628Z,927.31
2022-12-13T01:07:03.347Z,927.3
2022-12-13T01:08:04.355Z,927.29
2022-12-13T01:09:05.206Z,927.35
2022-12-13T01:10:06.463Z,927.34
2022-12-13T01:11:06.961Z,927.31
2022-12-13T01:12:07.880Z,927.32
2022-12-13T01:13:08.822Z,927.35
2022-12-13T01:14:09.719Z,927.31
2022-12-13T01:15:10.732Z,927.29
2022-12-13T01:16:11.353Z,927.29
2022-12-13T01:17:11.957Z,927.29
2022-12-13T01:18:12.326Z,927.31
2022-12-13T01:19:13.235Z,927.29
2022-12-13T01:20:14.346Z,927.24
2022-12-13T01:21:14.865Z,927.26
2022-12-13T01:22:14.931Z,927.22
2022-12-13T01:23:15.427Z,927.25
2022-12-13T01:24:15.617Z,927.18
2022-12-13T01:25:16.741Z,927.19
2022-12-13T01:26:17.023Z,927.17
2022-12-13T01:27:17.736Z,927.16
2022-12-13T01:28:18.663Z,927.13
2022-12-13T01:29:19.149Z,927.16
2022-12-13T01:30:19.793Z,927.12
2022-12-13T01:31:20.916Z,927.15
2022-12-13T01:32:20.948Z,927.12
2022-12-13T01:33:21.842Z,927.18
2022-12-13T01:34:26.187Z,927.13
2022-12-13T01:35:23.448Z,927.16
2022-12-13T01:36:27.182Z,927.12
2022-12-13T01:37:27.026Z,927.15
2022-12-13T01:38:27.183Z,927.14
2022-12-13T01:39:27.989Z,927.09
2022-12-13T01:40:28.180Z,927.13
2022-12-13T01:41:29.271Z,927.07
2022-12-13T01:42:30.182Z,927
2022-12-13T01:43:30.844Z,927
2022-12-13T01:44:31.035Z,927.04
2022-12-13T01:45:31.358Z,927.02
2022-12-13T01:46:31.669Z,927
2022-12-13T01:47:32.183Z,927.03
2022-12-13T01:48:33.081Z,927
2022-12-13T01:49:33.278Z,927
2022-12-13T01:50:33.897Z,926.99
2022-12-13T01:51:34.165Z,926.98
2022-12-13T01:52:34.803Z,926.93
2022-12-13T01:53:35.309Z,926.95
2022-12-13T01:54:35.509Z,926.96
2022-12-13T01:55:41.389Z,926.93
2022-12-13T01:56:37.199Z,926.95
2022-12-13T01:57:38.598Z,926.88
2022-12-13T01:58:38.308Z,926.86
2022-12-13T01:59:38.903Z,926.86
2022-12-13T02:00:40.932Z,926.87
2022-12-13T02:01:40.213Z,926.88
2022-12-13T02:02:40.791Z,926.77
2022-12-13T02:03:41.703Z,926.78
2022-12-13T02:04:43.579Z,926.72
2022-12-13T02:05:42.773Z,926.76
2022-12-13T02:06:43.222Z,926.7
2022-12-13T02:07:43.642Z,926.71
2022-12-13T02:08:44.132Z,926.71
2022-12-13T02:09:45.039Z,926.72
2022-12-13T02:10:45.738Z,926.68
2022-12-13T02:11:45.920Z,926.7
2022-12-13T02:12:46.533Z,926.66
2022-12-13T02:13:47.439Z,926.63
2022-12-13T02:14:48.048Z,926.65
2022-12-13T02:15:48.919Z,926.62
2022-12-13T02:16:49.700Z,926.6
2022-12-13T02:17:50.598Z,926.61
2022-12-13T02:18:51.500Z,926.56
2022-12-13T02:19:52.099Z,926.59
2022-12-13T02:20:53.007Z,926.57
2022-12-13T02:21:53.617Z,926.52
2022-12-13T02:22:54.507Z,926.6
2022-12-13T02:23:54.713Z,926.57
2022-12-13T02:24:55.486Z,926.64
2022-12-13T02:25:56.247Z,926.67
2022-12-13T02:26:56.550Z,926.63
2022-12-13T02:28:00.458Z,926.55
2022-12-13T02:28:57.597Z,926.52
2022-12-13T02:29:58.122Z,926.5
2022-12-13T02:30:58.800Z,926.47
2022-12-13T02:32:00.474Z,926.49
2022-12-13T02:32:59.933Z,926.46
2022-12-13T02:34:00.276Z,926.44
2022-12-13T02:35:01.186Z,926.46
2022-12-13T02:36:01.722Z,926.43
2022-12-13T02:37:02.628Z,926.45
2022-12-13T02:38:02.950Z,926.43
2022-12-13T02:39:03.216Z,926.46
2022-12-13T02:40:03.844Z,926.43
2022-12-13T02:41:04.073Z,926.44
2022-12-13T02:42:04.986Z,926.38
2022-12-13T02:43:05.499Z,926.35
2022-12-13T02:44:13.033Z,926.36
2022-12-13T02:45:06.391Z,926.34
2022-12-13T02:46:07.360Z,926.32
2022-12-13T02:47:12.660Z,926.24
2022-12-13T02:48:08.830Z,926.29
2022-12-13T02:49:09.160Z,926.23
2022-12-13T02:50:09.480Z,926.24
2022-12-13T02:51:10.107Z,926.21
2022-12-13T02:52:10.590Z,926.18
2022-12-13T02:53:11.028Z,926.23
2022-12-13T02:54:11.240Z,926.19
2022-12-13T02:55:12.316Z,926.18
2022-12-13T02:56:12.803Z,926.19
2022-12-13T02:57:13.321Z,926.22
2022-12-13T02:58:14.144Z,926.2
2022-12-13T02:59:14.367Z,926.2
2022-12-13T03:00:14.850Z,926.24
2022-12-13T03:01:28.264Z,926.25
2022-12-13T03:02:21.487Z,926.3
2022-12-13T03:03:17.676Z,926.28
2022-12-13T03:04:21.080Z,926.28
2022-12-13T03:05:18.630Z,926.25
2022-12-13T03:06:19.521Z,926.3
2022-12-13T03:07:20.042Z,926.25
2022-12-13T03:08:20.391Z,926.23
2022-12-13T03:09:20.987Z,926.23
2022-12-13T03:10:21.913Z,926.24
2022-12-13T03:11:22.694Z,926.23
2022-12-13T03:12:23.311Z,926.19
2022-12-13T03:13:24.238Z,926.2
2022-12-13T03:14:24.380Z,926.21
2022-12-13T03:15:24.603Z,926.15
2022-12-13T03:16:25.745Z,926.2
2022-12-13T03:17:25.803Z,926.13
2022-12-13T03:18:26.113Z,926.11
2022-12-13T03:19:27.010Z,926.15
2022-12-13T03:20:27.199Z,926.08
2022-12-13T03:21:28.088Z,926.09
2022-12-13T03:22:28.885Z,926.08
2022-12-13T03:23:29.216Z,926.09
2022-12-13T03:24:30.136Z,926.09
2022-12-13T03:25:32.336Z,926.08
2022-12-13T03:26:31.137Z,926.07
2022-12-13T03:27:31.635Z,926.08
2022-12-13T03:28:32.037Z,926.13
2022-12-13T03:29:32.265Z,926.12
2022-12-13T03:30:32.905Z,926.13
2022-12-13T03:31:33.811Z,926.14
2022-12-13T03:32:34.207Z,926.09
2022-12-13T03:33:34.408Z,926.07
2022-12-13T03:34:43.224Z,926.12
2022-12-13T03:35:45.680Z,926.14
2022-12-13T03:36:45.176Z,926.12
2022-12-13T03:37:45.982Z,926.12
2022-12-13T03:38:46.336Z,926.13
2022-12-13T03:39:46.713Z,926.06
2022-12-13T03:40:47.221Z,926.1
2022-12-13T03:41:47.756Z,926.06
2022-12-13T03:42:48.240Z,926.04
2022-12-13T03:43:48.448Z,926.05
2022-12-13T03:44:49.351Z,926
2022-12-13T03:45:49.840Z,925.99
2022-12-13T03:46:50.118Z,925.99
2022-12-13T03:47:50.379Z,925.99
2022-12-13T03:48:50.655Z,926.02
2022-12-13T03:49:54.155Z,926.02
2022-12-13T03:50:51.493Z,926.02
2022-12-13T03:51:52.110Z,925.99
2022-12-13T03:52:52.298Z,925.97
2022-12-13T03:53:53.255Z,925.95
2022-12-13T03:54:54.182Z,925.93
2022-12-13T03:55:55.101Z,925.91
2022-12-13T03:56:55.892Z,925.93
2022-12-13T03:57:56.423Z,925.91
2022-12-13T03:58:57.270Z,925.86
2022-12-13T03:59:58.170Z,925.87
2022-12-13T04:00:58.358Z,925.88
2022-12-13T04:01:59.372Z,925.84
2022-12-13T04:03:00.048Z,925.87
2022-12-13T04:04:00.104Z,925.83
2022-12-13T04:05:01.046Z,925.82
2022-12-13T04:06:01.294Z,925.79
2022-12-13T04:07:01.392Z,925.84
2022-12-13T04:08:02.303Z,925.81
2022-12-13T04:09:05.307Z,925.88
2022-12-13T04:10:25.102Z,925.82
2022-12-13T04:11:06.097Z,925.86
2022-12-13T04:12:07.024Z,925.77
2022-12-13T04:13:07.941Z,925.82
2022-12-13T04:14:08.131Z,925.81
2022-12-13T04:15:08.656Z,925.74
2022-12-13T04:16:09.718Z,925.73
2022-12-13T04:17:09.947Z,925.69
2022-12-13T04:18:10.848Z,925.76
2022-12-13T04:19:11.440Z,925.76
2022-12-13T04:20:11.940Z,925.73
2022-12-13T04:21:12.830Z,925.67
2022-12-13T04:22:13.305Z,925.74
2022-12-13T04:23:13.763Z,925.7
2022-12-13T04:24:14.139Z,925.71
2022-12-13T04:25:15.162Z,925.69
2022-12-13T04:26:15.556Z,925.71
2022-12-13T04:27:16.190Z,925.71
2022-12-13T04:28:21.705Z,925.7
2022-12-13T04:29:16.677Z,925.69
2022-12-13T04:30:17.006Z,925.65
2022-12-13T04:31:17.216Z,925.65
2022-12-13T04:32:26.160Z,925.67
2022-12-13T04:33:18.103Z,925.62
2022-12-13T04:34:18.335Z,925.61
2022-12-13T04:35:18.795Z,925.61
2022-12-13T04:36:30.825Z,925.63
2022-12-13T04:37:20.764Z,925.62
2022-12-13T04:38:21.392Z,925.59
2022-12-13T04:39:24.002Z,925.62
2022-12-13T04:40:24.288Z,925.6
2022-12-13T04:41:25.172Z,925.59
2022-12-13T04:42:26.112Z,925.61
2022-12-13T04:43:26.318Z,925.63
2022-12-13T04:44:27.265Z,925.63
2022-12-13T04:45:27.207Z,925.63
2022-12-13T04:46:27.659Z,925.6
2022-12-13T04:47:27.883Z,925.56
2022-12-13T04:48:30.579Z,925.54
2022-12-13T04:49:28.790Z,925.58
2022-12-13T04:50:28.973Z,925.58
2022-12-13T04:51:29.159Z,925.57
2022-12-13T04:52:29.930Z,925.55
2022-12-13T04:53:30.835Z,925.55
2022-12-13T04:54:35.818Z,925.6
2022-12-13T04:55:32.760Z,925.54
2022-12-13T04:56:33.685Z,925.52
2022-12-13T04:57:33.901Z,925.52
2022-12-13T04:58:34.815Z,925.53
2022-12-13T04:59:35.556Z,925.53
2022-12-13T05:00:36.021Z,925.53
2022-12-13T05:01:36.598Z,925.52
2022-12-13T05:02:37.772Z,925.49
2022-12-13T05:03:37.796Z,925.46
2022-12-13T05:04:38.004Z,925.48
2022-12-13T05:05:38.177Z,925.51
2022-12-13T05:06:38.811Z,925.52
2022-12-13T05:07:41.969Z,925.44
2022-12-13T05:08:39.247Z,925.47
2022-12-13T05:09:39.508Z,925.4
2022-12-13T05:10:40.450Z,925.36
2022-12-13T05:11:45.315Z,925.36
2022-12-13T05:12:41.223Z,925.38
2022-12-13T05:13:42.137Z,925.33
2022-12-13T05:14:42.327Z,925.38
2022-12-13T05:15:43.244Z,925.38
2022-12-13T05:16:43.729Z,925.37
2022-12-13T05:17:43.803Z,925.3
2022-12-13T05:18:44.740Z,925.3
2022-12-13T05:19:45.348Z,925.29
2022-12-13T05:20:45.955Z,925.31
2022-12-13T05:21:46.438Z,925.3
2022-12-13T05:22:46.771Z,925.3
2022-12-13T05:23:46.963Z,925.28
2022-12-13T05:24:47.867Z,925.29
2022-12-13T05:25:48.372Z,925.34
2022-12-13T05:26:49.288Z,925.35
2022-12-13T05:27:49.768Z,925.31
2022-12-13T05:28:50.355Z,925.32
2022-12-13T05:29:53.776Z,925.34
2022-12-13T05:30:51.550Z,925.32
2022-12-13T05:31:52.069Z,925.32
2022-12-13T05:32:52.584Z,925.35
2022-12-13T05:33:53.487Z,925.31
2022-12-13T05:34:54.376Z,925.35
2022-12-13T05:35:59.332Z,925.4
2022-12-13T05:36:55.522Z,925.43
2022-12-13T05:37:55.709Z,925.42
2022-12-13T05:38:56.313Z,925.45
2022-12-13T05:40:06.496Z,925.38
2022-12-13T05:41:07.424Z,925.31
2022-12-13T05:42:07.609Z,925.3
2022-12-13T05:43:21.607Z,925.29
2022-12-13T05:44:08.215Z,925.3
2022-12-13T05:45:09.252Z,925.32
2022-12-13T05:46:09.501Z,925.34
2022-12-13T05:47:09.980Z,925.33
2022-12-13T05:48:10.591Z,925.35
2022-12-13T05:49:11.340Z,925.37
2022-12-13T05:50:11.631Z,925.32
2022-12-13T05:51:12.678Z,925.37
2022-12-13T05:52:12.866Z,925.37
2022-12-13T05:53:13.011Z,925.4
2022-12-13T05:54:13.237Z,925.4
2022-12-13T05:55:14.619Z,925.44
2022-12-13T05:56:14.584Z,925.44
2022-12-13T05:57:15.519Z,925.45
2022-12-13T05:58:16.156Z,925.38
2022-12-13T05:59:17.116Z,925.44
2022-12-13T06:00:28.440Z,925.4
2022-12-13T06:01:18.070Z,925.38
2022-12-13T06:02:21.537Z,925.4
2022-12-13T06:03:18.803Z,925.36
2022-12-13T06:04:22.717Z,925.39
2022-12-13T06:05:19.200Z,925.34
2022-12-13T06:06:20.110Z,925.37
2022-12-13T06:07:20.448Z,925.34
2022-12-13T06:08:24.128Z,925.32
2022-12-13T06:09:21.675Z,925.33
2022-12-13T06:10:22.767Z,925.32
2022-12-13T06:11:31.516Z,925.26
2022-12-13T06:12:31.374Z,925.28
2022-12-13T06:13:32.255Z,925.3
2022-12-13T06:14:24.891Z,925.31
2022-12-13T06:15:25.336Z,925.31
2022-12-13T06:16:25.433Z,925.27
2022-12-13T06:17:26.181Z,925.32
2022-12-13T06:18:27.216Z,925.35
2022-12-13T06:19:27.399Z,925.36
2022-12-13T06:20:27.585Z,925.37
2022-12-13T06:21:27.903Z,925.36
2022-12-13T06:22:28.694Z,925.36
2022-12-13T06:23:28.894Z,925.36
2022-12-13T06:24:29.534Z,925.38
2022-12-13T06:25:32.051Z,925.4
2022-12-13T06:26:31.532Z,925.42
2022-12-13T06:27:32.153Z,925.44
2022-12-13T06:28:33.080Z,925.46
2022-12-13T06:29:34.011Z,925.4
2022-12-13T06:30:34.735Z,925.37
2022-12-13T06:31:35.380Z,925.37
2022-12-13T06:32:38.001Z,925.37
2022-12-13T06:33:36.463Z,925.41
2022-12-13T06:34:37.389Z,925.38
2022-12-13T06:35:41.458Z,925.34
2022-12-13T06:36:38.778Z,925.34
2022-12-13T06:37:38.990Z,925.36
2022-12-13T06:38:43.362Z,925.3
2022-12-13T06:39:40.443Z,925.38
2022-12-13T06:40:40.682Z,925.41
2022-12-13T06:41:41.273Z,925.39
2022-12-13T06:42:41.920Z,925.41
2022-12-13T06:43:42.589Z,925.41
2022-12-13T06:44:43.064Z,925.43
2022-12-13T06:45:43.756Z,925.44
2022-12-13T06:46:44.173Z,925.46
2022-12-13T06:47:44.990Z,925.45
2022-12-13T06:48:45.479Z,925.49
2022-12-13T06:49:46.655Z,925.49
2022-12-13T06:50:46.744Z,925.46
2022-12-13T06:51:47.637Z,925.45
2022-12-13T06:52:47.841Z,925.49
2022-12-13T06:53:48.322Z,925.41
2022-12-13T06:54:48.788Z,925.43
2022-12-13T06:55:49.470Z,925.48
2022-12-13T06:56:50.366Z,925.51
2022-12-13T06:57:51.271Z,925.51
2022-12-13T06:58:51.507Z,925.48
2022-12-13T06:59:51.745Z,925.5
2022-12-13T07:00:52.348Z,925.47
2022-12-13T07:01:53.306Z,925.48
2022-12-13T07:02:53.634Z,925.52
2022-12-13T07:03:54.142Z,925.52
2022-12-13T07:04:54.987Z,925.5
2022-12-13T07:05:58.339Z,925.53
2022-12-13T07:06:56.064Z,925.47
2022-12-13T07:07:57.191Z,925.52
2022-12-13T07:08:57.971Z,925.46
2022-12-13T07:09:58.608Z,925.45
2022-12-13T07:10:59.507Z,925.47
2022-12-13T07:11:59.792Z,925.54
2022-12-13T07:13:00.099Z,925.54
2022-12-13T07:14:00.765Z,925.52
2022-12-13T07:15:01.378Z,925.5
2022-12-13T07:16:01.676Z,925.54
2022-12-13T07:17:03.717Z,925.51
2022-12-13T07:18:03.274Z,925.48
2022-12-13T07:19:04.098Z,925.52
2022-12-13T07:20:04.786Z,925.51
2022-12-13T07:21:05.108Z,925.53
2022-12-13T07:22:06.191Z,925.49
2022-12-13T07:23:06.160Z,925.55
2022-12-13T07:24:07.323Z,925.51
2022-12-13T07:25:07.515Z,925.54
2022-12-13T07:26:08.282Z,925.56
2022-12-13T07:27:08.473Z,925.59
2022-12-13T07:28:08.674Z,925.67
2022-12-13T07:29:09.613Z,925.63
2022-12-13T07:30:10.125Z,925.65
2022-12-13T07:31:10.584Z,925.58
2022-12-13T07:32:10.754Z,925.61
2022-12-13T07:33:11.252Z,925.58
2022-12-13T07:34:15.552Z,925.58
2022-12-13T07:35:12.907Z,925.61
2022-12-13T07:36:13.117Z,925.59
2022-12-13T07:37:29.723Z,925.63
2022-12-13T07:38:15.116Z,925.68
2022-12-13T07:39:16.028Z,925.7
2022-12-13T07:40:16.689Z,925.68
2022-12-13T07:41:22.970Z,925.63
2022-12-13T07:42:17.577Z,925.67
2022-12-13T07:43:18.843Z,925.64
2022-12-13T07:44:19.261Z,925.71
2022-12-13T07:45:19.628Z,925.74
2022-12-13T07:46:23.540Z,925.73
2022-12-13T07:47:20.035Z,925.74
2022-12-13T07:48:20.831Z,925.71
2022-12-13T07:49:21.462Z,925.71
2022-12-13T07:50:24.446Z,925.74
2022-12-13T07:51:25.793Z,925.76
2022-12-13T07:52:26.229Z,925.74
2022-12-13T07:53:26.869Z,925.73
2022-12-13T07:54:27.581Z,925.74
2022-12-13T07:55:32.914Z,925.74
2022-12-13T07:56:28.680Z,925.73
2022-12-13T07:57:28.831Z,925.69
2022-12-13T07:58:29.828Z,925.71
2022-12-13T07:59:30.771Z,925.68
2022-12-13T08:00:31.675Z,925.72
2022-12-13T08:01:31.817Z,925.74
2022-12-13T08:02:32.339Z,925.67
2022-12-13T08:03:33.253Z,925.64
2022-12-13T08:04:37.560Z,925.69
2022-12-13T08:05:38.138Z,925.67
2022-12-13T08:06:34.696Z,925.68
2022-12-13T08:07:35.310Z,925.69
2022-12-13T08:08:35.626Z,925.68
2022-12-13T08:09:36.109Z,925.69
2022-12-13T08:10:36.805Z,925.68
2022-12-13T08:11:37.249Z,925.74
2022-12-13T08:12:37.751Z,925.69
2022-12-13T08:13:37.947Z,925.74
2022-12-13T08:14:38.888Z,925.7
2022-12-13T08:15:39.252Z,925.72
2022-12-13T08:16:39.483Z,925.7
2022-12-13T08:17:39.645Z,925.68
2022-12-13T08:18:40.172Z,925.7
2022-12-13T08:19:41.457Z,925.71
2022-12-13T08:20:41.639Z,925.69
2022-12-13T08:21:58.939Z,925.72
2022-12-13T08:23:01.914Z,925.71
2022-12-13T08:23:58.237Z,925.72
2022-12-13T08:24:58.413Z,925.76
2022-12-13T08:25:58.622Z,925.71
2022-12-13T08:26:59.176Z,925.7
2022-12-13T08:28:01.464Z,925.74
2022-12-13T08:29:00.022Z,925.73
2022-12-13T08:30:00.340Z,925.76
2022-12-13T08:31:00.726Z,925.78
2022-12-13T08:32:01.483Z,925.78
2022-12-13T08:33:04.972Z,925.79
2022-12-13T08:34:02.190Z,925.75
2022-12-13T08:35:02.468Z,925.78
2022-12-13T08:36:03.435Z,925.8
2022-12-13T08:37:04.820Z,925.75
2022-12-13T08:38:04.623Z,925.84
2022-12-13T08:39:04.859Z,925.79
2022-12-13T08:40:05.073Z,925.83
2022-12-13T08:41:05.989Z,925.85
2022-12-13T08:42:15.672Z,925.83
2022-12-13T08:43:06.847Z,925.83
2022-12-13T08:44:07.789Z,925.78
2022-12-13T08:45:08.412Z,925.81
2022-12-13T08:46:08.644Z,925.82
2022-12-13T08:47:08.784Z,925.83
2022-12-13T08:48:09.002Z,925.88
2022-12-13T08:49:09.780Z,925.9
2022-12-13T08:50:10.328Z,925.91
2022-12-13T08:51:10.518Z,925.95
2022-12-13T08:52:13.159Z,925.93
2022-12-13T08:53:28.815Z,925.89
2022-12-13T08:54:14.122Z,925.9
2022-12-13T08:55:14.310Z,925.88
2022-12-13T08:56:14.676Z,925.86
2022-12-13T08:57:15.594Z,925.94
2022-12-13T08:58:16.519Z,925.93
2022-12-13T08:59:17.141Z,925.98
2022-12-13T09:00:17.355Z,925.95
2022-12-13T09:01:17.858Z,925.96
2022-12-13T09:02:18.660Z,925.95
2022-12-13T09:03:19.287Z,925.93
2022-12-13T09:04:19.707Z,925.96
2022-12-13T09:05:32.795Z,925.95
2022-12-13T09:06:21.561Z,926.01
2022-12-13T09:07:22.514Z,926.05
2022-12-13T09:08:23.798Z,926.04
2022-12-13T09:09:23.612Z,926.06
2022-12-13T09:10:26.121Z,926.09
2022-12-13T09:11:34.901Z,926.08
2022-12-13T09:12:32.431Z,926.1
2022-12-13T09:13:33.126Z,926.1
2022-12-13T09:14:33.585Z,926.14
2022-12-13T09:15:34.187Z,926.13
2022-12-13T09:16:35.893Z,926.14
2022-12-13T09:17:36.602Z,926.08
2022-12-13T09:18:36.354Z,926.13
2022-12-13T09:19:36.840Z,926.1
2022-12-13T09:20:40.619Z,926.09
2022-12-13T09:21:37.391Z,926.11
2022-12-13T09:22:46.164Z,926.12
2022-12-13T09:23:46.608Z,926.12
2022-12-13T09:24:50.117Z,926.13
2022-12-13T09:25:52.571Z,926.11
2022-12-13T09:26:48.913Z,926.09
2022-12-13T09:27:49.689Z,926.12
2022-12-13T09:28:49.902Z,926.08
2022-12-13T09:29:50.433Z,926.12
2022-12-13T09:30:51.016Z,926.14
2022-12-13T09:31:53.357Z,926.16
2022-12-13T09:32:52.314Z,926.14
2022-12-13T09:33:52.967Z,926.14
2022-12-13T09:34:53.790Z,926.14
2022-12-13T09:35:54.676Z,926.16
2022-12-13T09:36:55.649Z,926.1
2022-12-13T09:37:55.927Z,926.05
2022-12-13T09:38:56.927Z,926.03
2022-12-13T09:39:57.366Z,926.05
2022-12-13T09:40:58.823Z,926.07
2022-12-13T09:42:00.881Z,926.13
2022-12-13T09:43:33.316Z,926.05
2022-12-13T09:44:42.346Z,926.09
2022-12-13T09:45:32.560Z,926.06
2022-12-13T09:46:34.562Z,926.11
2022-12-13T09:47:35.084Z,926.12
2022-12-13T09:48:34.725Z,926.14
2022-12-13T09:49:35.646Z,926.11
2022-12-13T09:50:37.029Z,926.14
2022-12-13T09:52:12.079Z,926.1
2022-12-13T09:53:21.221Z,926.09
2022-12-13T09:54:18.136Z,926.05
2022-12-13T09:55:19.331Z,926.08
2022-12-13T09:56:19.655Z,926.05
2022-12-13T09:57:31.697Z,926.06
2022-12-13T09:58:21.922Z,926.05
2022-12-13T09:59:21.862Z,926.02
2022-12-13T10:00:22.775Z,926.03
2022-12-13T10:01:23.866Z,926.03
2022-12-13T10:02:24.230Z,925.98
2022-12-13T10:03:25.380Z,926.01
2022-12-13T10:04:25.556Z,926.06
2022-12-13T10:05:34.005Z,926.03
2022-12-13T10:06:27.174Z,926.05
2022-12-13T10:07:27.703Z,926.05
2022-12-13T10:08:28.110Z,926.04
2022-12-13T10:09:29.050Z,926.06
2022-12-13T10:10:29.951Z,926.08
2022-12-13T10:11:31.788Z,926.08
2022-12-13T10:12:30.980Z,926.08
2022-12-13T10:13:31.208Z,926.06
2022-12-13T10:14:31.532Z,926.08
2022-12-13T10:15:31.922Z,926.02
2022-12-13T10:16:36.029Z,926
2022-12-13T10:17:38.037Z,925.98
2022-12-13T10:18:33.960Z,926.07
2022-12-13T10:19:34.136Z,926.05
2022-12-13T10:20:34.347Z,926.08
2022-12-13T10:21:35.303Z,926.05
2022-12-13T10:22:35.882Z,926.05
2022-12-13T10:24:15.575Z,926.08
2022-12-13T10:25:20.785Z,926.04
2022-12-13T10:26:23.700Z,926.02
2022-12-13T10:27:22.405Z,926.01
2022-12-13T10:28:22.621Z,926
2022-12-13T10:29:22.841Z,925.98
2022-12-13T10:30:28.288Z,925.95
2022-12-13T10:31:24.573Z,925.97
2022-12-13T10:32:25.209Z,925.95
2022-12-13T10:33:26.313Z,925.92
2022-12-13T10:34:26.379Z,925.94
2022-12-13T10:35:26.497Z,925.91
2022-12-13T10:36:27.412Z,925.93
2022-12-13T10:37:27.648Z,925.96
2022-12-13T10:38:31.837Z,926
2022-12-13T10:39:28.410Z,926.06
2022-12-13T10:40:31.819Z,926.05
2022-12-13T10:41:29.057Z,926.04
2022-12-13T10:42:33.993Z,926.02
2022-12-13T10:43:30.146Z,926.03
2022-12-13T10:44:30.793Z,925.99
2022-12-13T10:45:30.985Z,926
2022-12-13T10:46:31.941Z,926.02
2022-12-13T10:47:33.020Z,926.06
2022-12-13T10:48:38.264Z,926.04
2022-12-13T10:49:33.936Z,926.07
2022-12-13T10:50:34.690Z,926.08
2022-12-13T10:51:34.780Z,926.05
2022-12-13T10:52:35.184Z,925.98
2022-12-13T10:53:35.958Z,926
2022-12-13T10:54:38.585Z,925.99
2022-12-13T10:55:55.628Z,925.98
2022-12-13T10:56:56.288Z,925.94
2022-12-13T10:57:56.796Z,925.97
2022-12-13T10:58:57.746Z,925.98
2022-12-13T10:59:58.300Z,925.96
2022-12-13T11:00:58.946Z,925.96
2022-12-13T11:01:59.195Z,925.93
2022-12-13T11:03:00.019Z,925.87
2022-12-13T11:04:02.014Z,925.87
2022-12-13T11:05:01.651Z,925.87
2022-12-13T11:06:02.064Z,925.88
2022-12-13T11:07:02.783Z,925.88
2022-12-13T11:08:03.005Z,925.91
2022-12-13T11:09:03.545Z,925.88
2022-12-13T11:10:05.171Z,925.9
2022-12-13T11:11:04.978Z,925.88
2022-12-13T11:12:05.497Z,925.9
2022-12-13T11:13:06.147Z,925.9
2022-12-13T11:14:06.703Z,925.95
2022-12-13T11:15:06.968Z,925.94
2022-12-13T11:16:07.243Z,925.95
2022-12-13T11:17:08.081Z,925.92
2022-12-13T11:18:09.004Z,925.92
2022-12-13T11:19:09.596Z,925.92
2022-12-13T11:20:09.934Z,925.88
2022-12-13T11:21:10.994Z,925.86
2022-12-13T11:22:11.218Z,925.87
2022-12-13T11:23:11.474Z,925.88
2022-12-13T11:24:11.744Z,925.85
2022-12-13T11:25:12.782Z,925.89
2022-12-13T11:26:13.395Z,925.87
2022-12-13T11:27:14.141Z,925.88
2022-12-13T11:28:25.639Z,925.89
2022-12-13T11:29:14.826Z,925.9
2022-12-13T11:30:15.523Z,925.9
2022-12-13T11:31:16.469Z,925.88
2022-12-13T11:32:22.456Z,925.89
2022-12-13T11:33:17.198Z,925.89
2022-12-13T11:34:17.881Z,925.84
2022-12-13T11:35:18.131Z,925.87
2022-12-13T11:36:18.508Z,925.83
2022-12-13T11:37:19.047Z,925.74
2022-12-13T11:38:19.470Z,925.74
2022-12-13T11:39:20.262Z,925.73
2022-12-13T11:40:21.199Z,925.73
2022-12-13T11:41:31.220Z,925.77
2022-12-13T11:42:22.647Z,925.74
2022-12-13T11:43:22.769Z,925.7
2022-12-13T11:44:23.675Z,925.72
2022-12-13T11:45:24.717Z,925.66
2022-12-13T11:46:25.177Z,925.7
2022-12-13T11:47:25.952Z,925.75
2022-12-13T11:48:26.421Z,925.67
2022-12-13T11:49:27.192Z,925.69
2022-12-13T11:50:33.298Z,925.65
2022-12-13T11:51:28.599Z,925.61
2022-12-13T11:52:29.559Z,925.65
2022-12-13T11:53:30.226Z,925.61
2022-12-13T11:54:30.532Z,925.61
2022-12-13T11:55:31.154Z,925.57
2022-12-13T11:56:32.029Z,925.56
2022-12-13T11:57:32.827Z,925.57
2022-12-13T11:59:00.932Z,925.55
2022-12-13T11:59:46.257Z,925.55
2022-12-13T12:00:46.609Z,925.56
2022-12-13T12:01:47.538Z,925.55
2022-12-13T12:02:48.242Z,925.55
2022-12-13T12:03:48.963Z,925.53
2022-12-13T12:04:52.518Z,925.54
2022-12-13T12:05:50.113Z,925.52
2022-12-13T12:06:51.034Z,925.52
2022-12-13T12:08:20.877Z,925.52
2022-12-13T12:08:52.619Z,925.52
2022-12-13T12:09:53.509Z,925.53
2022-12-13T12:10:53.960Z,925.47
2022-12-13T12:11:54.446Z,925.49
2022-12-13T12:12:55.383Z,925.53
2022-12-13T12:13:55.582Z,925.5
2022-12-13T12:14:56.218Z,925.46
2022-12-13T12:15:56.430Z,925.48
2022-12-13T12:16:56.483Z,925.53
2022-12-13T12:17:56.713Z,925.51
2022-12-13T12:19:01.221Z,925.52
2022-12-13T12:19:58.319Z,925.5
2022-12-13T12:20:58.638Z,925.49
2022-12-13T12:22:15.327Z,925.48
2022-12-13T12:22:59.441Z,925.48
2022-12-13T12:23:59.854Z,925.41
2022-12-13T12:25:00.159Z,925.4
2022-12-13T12:26:00.389Z,925.4
2022-12-13T12:27:01.407Z,925.41
2022-12-13T12:28:02.184Z,925.45
2022-12-13T12:29:02.391Z,925.5
2022-12-13T12:30:03.455Z,925.5
2022-12-13T12:31:03.953Z,925.52
2022-12-13T12:32:04.821Z,925.57
2022-12-13T12:33:05.056Z,925.62
2022-12-13T12:34:06.003Z,925.63
2022-12-13T12:35:06.857Z,925.6
2022-12-13T12:36:07.789Z,925.63
2022-12-13T12:37:08.383Z,925.65
2022-12-13T12:38:08.599Z,925.64
2022-12-13T12:39:09.125Z,925.67
2022-12-13T12:40:09.511Z,925.59
2022-12-13T12:41:17.693Z,925.61
2022-12-13T12:42:11.027Z,925.53